createdAt,value
2022-10-11T00:00:31.542Z,14.62
2022-10-11T00:02:59.515Z,14.63
2022-10-11T00:05:28.651Z,14.63
2022-10-11T00:07:56.958Z,14.63
2022-10-11T00:10:25.454Z,14.60
2022-10-11T00:12:53.254Z,14.59
2022-10-11T00:15:22.757Z,14.58
2022-10-11T00:17:51.025Z,14.57
2022-10-11T00:20:19.012Z,14.57
2022-10-11T00:22:49.320Z,14.53
2022-10-11T00:25:18.066Z,14.53
2022-10-11T00:27:46.260Z,14.52
2022-10-11T00:30:14.943Z,14.52
2022-10-11T00:32:42.670Z,14.50
2022-10-11T00:35:11.177Z,14.50
2022-10-11T00:37:40.116Z,14.49
2022-10-11T00:40:14.391Z,14.50
2022-10-11T00:42:42.208Z,14.49
2022-10-11T00:45:54.967Z,14.46
2022-10-11T00:48:27.478Z,14.45
2022-10-11T00:50:55.959Z,14.44
2022-10-11T00:53:24.256Z,14.45
2022-10-11T00:55:56.700Z,14.41
2022-10-11T00:58:24.968Z,14.41
2022-10-11T01:00:54.097Z,14.38
2022-10-11T01:03:26.185Z,14.34
2022-10-11T01:05:54.208Z,14.31
2022-10-11T01:08:23.230Z,14.32
2022-10-11T01:10:51.302Z,14.28
2022-10-11T01:13:30.741Z,14.29
2022-10-11T01:16:08.955Z,14.28
2022-10-11T01:18:45.064Z,14.24
2022-10-11T01:21:24.959Z,14.23
2022-10-11T01:24:15.953Z,14.14
2022-10-11T01:27:31.134Z,14.09
2022-10-11T01:30:08.643Z,14.04
2022-10-11T01:32:46.040Z,14.05
2022-10-11T01:35:22.246Z,14.01
2022-10-11T01:37:56.091Z,13.96
2022-10-11T01:40:28.790Z,13.98
2022-10-11T01:42:57.923Z,13.99
2022-10-11T01:45:26.597Z,13.94
2022-10-11T01:48:05.002Z,13.91
2022-10-11T01:50:40.287Z,13.93
2022-10-11T01:53:24.259Z,13.86
2022-10-11T01:55:56.452Z,13.82
2022-10-11T01:58:38.609Z,13.83
2022-10-11T02:01:16.679Z,13.80
2022-10-11T02:03:52.385Z,13.79
2022-10-11T02:06:31.425Z,13.80
2022-10-11T02:09:08.245Z,13.78
2022-10-11T02:11:37.461Z,13.73
2022-10-11T02:14:11.909Z,13.69
2022-10-11T02:16:43.892Z,13.69
2022-10-11T02:19:16.112Z,13.73
2022-10-11T02:21:48.255Z,13.67
2022-10-11T02:24:20.619Z,13.61
2022-10-11T02:26:54.669Z,13.58
2022-10-11T02:29:25.617Z,13.53
2022-10-11T02:31:55.520Z,13.46
2022-10-11T02:34:27.545Z,13.42
2022-10-11T02:37:03.355Z,13.43
2022-10-11T02:39:36.724Z,13.33
2022-10-11T02:42:08.087Z,13.28
2022-10-11T02:44:39.956Z,13.23
2022-10-11T02:47:08.725Z,13.19
2022-10-11T02:49:37.980Z,13.14
2022-10-11T02:52:06.930Z,13.17
2022-10-11T02:54:34.789Z,13.15
2022-10-11T02:57:02.515Z,13.10
2022-10-11T02:59:30.201Z,13.05
2022-10-11T03:01:57.951Z,12.97
2022-10-11T03:04:25.759Z,12.94
2022-10-11T03:06:54.862Z,12.91
2022-10-11T03:09:22.634Z,12.90
2022-10-11T03:11:50.367Z,12.89
2022-10-11T03:14:18.112Z,12.83
2022-10-11T03:16:45.844Z,12.80
2022-10-11T03:19:18.319Z,12.80
2022-10-11T03:21:47.246Z,12.75
2022-10-11T03:24:16.350Z,12.71
2022-10-11T03:26:44.078Z,12.68
2022-10-11T03:29:11.900Z,12.72
2022-10-11T03:31:39.665Z,12.70
2022-10-11T03:34:07.778Z,12.68
2022-10-11T03:36:35.455Z,12.68
2022-10-11T03:39:03.600Z,12.69
2022-10-11T03:41:32.897Z,12.67
2022-10-11T03:44:00.599Z,12.67
2022-10-11T03:46:28.382Z,12.63
2022-10-11T03:48:56.069Z,12.62
2022-10-11T03:51:23.824Z,12.59
2022-10-11T03:53:51.557Z,12.55
2022-10-11T03:56:19.310Z,12.55
2022-10-11T03:58:48.405Z,12.55
2022-10-11T04:01:16.394Z,12.53
2022-10-11T04:03:44.154Z,12.52
2022-10-11T04:06:11.866Z,12.55
2022-10-11T04:08:39.872Z,12.55
2022-10-11T04:11:07.586Z,12.51
2022-10-11T04:13:35.283Z,12.50
2022-10-11T04:16:05.002Z,12.54
2022-10-11T04:18:32.809Z,12.54
2022-10-11T04:21:00.544Z,12.53
2022-10-11T04:23:28.407Z,12.53
2022-10-11T04:25:56.174Z,12.53
2022-10-11T04:28:24.031Z,12.54
2022-10-11T04:30:52.153Z,12.50
2022-10-11T04:33:21.800Z,12.51
2022-10-11T04:35:49.764Z,12.52
2022-10-11T04:38:17.499Z,12.51
2022-10-11T04:40:45.266Z,12.48
2022-10-11T04:43:15.264Z,12.49
2022-10-11T04:45:43.227Z,12.46
2022-10-11T04:48:11.272Z,12.49
2022-10-11T04:50:40.458Z,12.52
2022-10-11T04:53:08.161Z,12.52
2022-10-11T04:55:36.290Z,12.53
2022-10-11T04:58:04.032Z,12.54
2022-10-11T05:00:31.907Z,12.57
2022-10-11T05:02:59.658Z,12.54
2022-10-11T05:05:27.534Z,12.52
2022-10-11T05:07:56.580Z,12.47
2022-10-11T05:10:24.421Z,12.39
2022-10-11T05:12:52.174Z,12.32
2022-10-11T05:15:20.050Z,12.27
2022-10-11T05:17:47.893Z,12.13
2022-10-11T05:20:15.883Z,12.09
2022-10-11T05:22:43.732Z,12.25
2022-10-11T05:25:12.848Z,12.13
2022-10-11T05:27:40.620Z,12.04
2022-10-11T05:30:09.562Z,12.02
2022-10-11T05:32:37.865Z,11.91
2022-10-11T05:35:07.007Z,11.91
2022-10-11T05:37:34.779Z,11.93
2022-10-11T05:40:02.536Z,11.89
2022-10-11T05:42:31.718Z,11.85
2022-10-11T05:44:59.477Z,11.91
2022-10-11T05:47:27.194Z,11.86
2022-10-11T05:49:54.880Z,11.79
2022-10-11T05:52:22.663Z,11.83
2022-10-11T05:54:50.697Z,11.67
2022-10-11T05:57:18.534Z,11.68
2022-10-11T05:59:47.595Z,11.67
2022-10-11T06:02:15.341Z,11.56
2022-10-11T06:04:43.101Z,11.56
2022-10-11T06:07:10.846Z,11.55
2022-10-11T06:09:39.675Z,11.61
2022-10-11T06:12:07.737Z,11.61
2022-10-11T06:14:36.336Z,11.59
2022-10-11T06:17:05.411Z,11.60
2022-10-11T06:19:33.512Z,11.52
2022-10-11T06:22:01.318Z,11.50
2022-10-11T06:24:29.020Z,11.50
2022-10-11T06:26:56.980Z,11.50
2022-10-11T06:29:24.689Z,11.47
2022-10-11T06:31:52.511Z,11.42
2022-10-11T06:34:21.744Z,11.37
2022-10-11T06:36:49.486Z,11.38
2022-10-11T06:39:17.265Z,11.47
2022-10-11T06:41:44.969Z,11.41
2022-10-11T06:44:14.446Z,11.38
2022-10-11T06:46:42.760Z,11.30
2022-10-11T06:49:10.476Z,11.26
2022-10-11T06:51:39.819Z,11.26
2022-10-11T06:54:07.592Z,11.25
2022-10-11T06:56:35.356Z,11.10
2022-10-11T06:59:03.559Z,11.24
2022-10-11T07:01:32.725Z,11.16
2022-10-11T07:04:01.664Z,11.25
2022-10-11T07:06:31.102Z,11.14
2022-10-11T07:09:01.914Z,11.23
2022-10-11T07:11:29.955Z,11.27
2022-10-11T07:13:59.229Z,11.30
2022-10-11T07:16:28.470Z,11.31
2022-10-11T07:19:00.721Z,11.39
2022-10-11T07:21:29.745Z,11.41
2022-10-11T07:23:57.507Z,11.44
2022-10-11T07:26:27.081Z,11.53
2022-10-11T07:28:55.049Z,11.57
2022-10-11T07:31:25.130Z,11.65
2022-10-11T07:33:53.242Z,11.67
2022-10-11T07:36:23.260Z,11.72
2022-10-11T07:38:51.356Z,11.77
2022-10-11T07:41:19.587Z,11.78
2022-10-11T07:43:49.841Z,11.90
2022-10-11T07:46:17.977Z,11.81
2022-10-11T07:48:45.777Z,11.83
2022-10-11T07:51:16.204Z,11.88
2022-10-11T07:53:46.091Z,11.89
2022-10-11T07:56:32.222Z,12.02
2022-10-11T07:59:03.510Z,11.97
2022-10-11T08:01:32.296Z,11.99
2022-10-11T08:04:00.203Z,11.94
2022-10-11T08:06:31.652Z,11.97
2022-10-11T08:09:00.883Z,12.00
2022-10-11T08:11:30.122Z,12.03
2022-10-11T08:13:59.345Z,12.13
2022-10-11T08:16:28.571Z,12.04
2022-10-11T08:18:57.165Z,12.07
2022-10-11T08:21:26.939Z,12.06
2022-10-11T08:23:54.755Z,12.11
2022-10-11T08:26:22.573Z,12.18
2022-10-11T08:28:50.405Z,12.25
2022-10-11T08:31:18.351Z,12.25
2022-10-11T08:33:47.878Z,12.24
2022-10-11T08:36:15.856Z,12.33
2022-10-11T08:38:43.608Z,12.36
2022-10-11T08:41:30.539Z,12.46
2022-10-11T08:44:14.897Z,12.61
2022-10-11T08:46:47.731Z,12.85
2022-10-11T08:49:19.193Z,13.09
2022-10-11T08:51:51.932Z,13.44
2022-10-11T08:54:24.069Z,13.81
2022-10-11T08:56:52.267Z,13.94
2022-10-11T08:59:30.114Z,13.95
2022-10-11T09:02:05.017Z,13.92
2022-10-11T09:04:35.199Z,13.89
2022-10-11T09:07:12.430Z,13.70
2022-10-11T09:09:58.040Z,13.64
2022-10-11T09:12:40.805Z,13.64
2022-10-11T09:15:18.725Z,13.58
2022-10-11T09:18:10.029Z,13.52
2022-10-11T09:20:49.001Z,13.49
2022-10-11T09:23:32.893Z,13.45
2022-10-11T09:26:07.484Z,13.43
2022-10-11T09:28:46.790Z,13.37
2022-10-11T09:31:14.597Z,13.44
2022-10-11T09:33:46.928Z,13.47
2022-10-11T09:36:23.525Z,13.49
2022-10-11T09:38:55.855Z,13.57
2022-10-11T09:41:30.375Z,13.68
2022-10-11T09:43:58.130Z,13.79
2022-10-11T09:46:32.839Z,14.04
2022-10-11T09:49:03.775Z,14.38
2022-10-11T09:51:33.893Z,14.63
2022-10-11T09:54:04.927Z,14.80
2022-10-11T09:56:41.127Z,15.08
2022-10-11T09:59:25.365Z,15.24
2022-10-11T10:02:17.789Z,15.50
2022-10-11T10:04:56.837Z,15.64
2022-10-11T10:07:26.713Z,15.49
2022-10-11T10:09:55.023Z,15.40
2022-10-11T10:12:27.187Z,15.42
2022-10-11T10:15:18.757Z,15.48
2022-10-11T10:17:50.658Z,15.75
2022-10-11T10:20:22.814Z,15.94
2022-10-11T10:22:53.699Z,16.12
2022-10-11T10:25:28.591Z,16.38
2022-10-11T10:28:01.276Z,16.58
2022-10-11T10:30:34.535Z,16.76
2022-10-11T10:33:06.960Z,16.76
2022-10-11T10:35:39.523Z,16.96
2022-10-11T10:38:16.421Z,17.10
2022-10-11T10:40:48.447Z,17.17
2022-10-11T10:43:19.213Z,17.35
2022-10-11T10:46:04.204Z,17.44
2022-10-11T10:49:18.765Z,17.57
2022-10-11T10:51:37.094Z,17.58
2022-10-11T10:54:16.462Z,17.75
2022-10-11T10:56:51.381Z,17.90
2022-10-11T10:59:43.163Z,17.95
2022-10-11T11:02:38.954Z,18.05
2022-10-11T11:05:16.411Z,18.24
2022-10-11T11:07:49.422Z,18.17
2022-10-11T11:10:21.988Z,18.11
2022-10-11T11:12:57.274Z,18.35
2022-10-11T11:15:35.584Z,18.46
2022-10-11T11:18:20.288Z,18.55
2022-10-11T11:21:03.082Z,18.59
2022-10-11T11:23:39.359Z,18.73
2022-10-11T11:26:16.547Z,18.89
2022-10-11T11:29:12.422Z,18.98
2022-10-11T11:31:57.313Z,19.14
2022-10-11T11:34:29.595Z,19.19
2022-10-11T11:37:01.067Z,19.32
2022-10-11T11:39:34.012Z,19.42
2022-10-11T11:42:13.112Z,19.41
2022-10-11T11:44:45.098Z,19.18
2022-10-11T11:47:20.017Z,19.32
2022-10-11T11:49:52.143Z,19.28
2022-10-11T11:52:27.348Z,19.26
2022-10-11T11:55:06.518Z,19.34
2022-10-11T11:57:50.540Z,19.61
2022-10-11T12:00:21.743Z,19.57
2022-10-11T12:02:54.384Z,19.78
2022-10-11T12:05:24.303Z,19.73
2022-10-11T12:07:56.695Z,19.90
2022-10-11T12:10:28.558Z,20.03
2022-10-11T12:13:20.166Z,20.34
2022-10-11T12:16:10.957Z,20.31
2022-10-11T12:18:50.972Z,20.31
2022-10-11T12:21:31.914Z,20.28
2022-10-11T12:24:00.979Z,20.69
2022-10-11T12:26:42.923Z,20.63
2022-10-11T12:29:47.010Z,20.08
2022-10-11T12:32:51.335Z,20.17
2022-10-11T12:36:01.390Z,20.50
2022-10-11T12:38:34.235Z,20.75
2022-10-11T12:41:38.268Z,20.71
2022-10-11T12:44:14.388Z,20.73
2022-10-11T12:47:11.174Z,20.27
2022-10-11T12:49:54.400Z,19.95
2022-10-11T12:52:28.349Z,19.88
2022-10-11T12:55:08.897Z,19.80
2022-10-11T12:57:52.629Z,20.02
2022-10-11T13:00:25.964Z,19.69
2022-10-11T13:02:56.339Z,19.64
2022-10-11T13:05:27.576Z,20.02
2022-10-11T13:07:58.735Z,20.24
2022-10-11T13:10:31.764Z,20.10
2022-10-11T13:13:04.347Z,20.13
2022-10-11T13:15:32.577Z,19.95
2022-10-11T13:18:02.529Z,19.94
2022-10-11T13:20:32.289Z,19.90
2022-10-11T13:23:00.053Z,19.83
2022-10-11T13:25:29.888Z,20.06
2022-10-11T13:27:59.478Z,20.07
2022-10-11T13:30:30.532Z,19.87
2022-10-11T13:32:59.916Z,19.98
2022-10-11T13:35:33.571Z,19.99
2022-10-11T13:38:02.139Z,19.88
2022-10-11T13:40:31.822Z,19.95
2022-10-11T13:43:00.113Z,20.11
2022-10-11T13:45:30.633Z,20.30
2022-10-11T13:47:58.786Z,20.44
2022-10-11T13:50:32.261Z,20.45
2022-10-11T13:53:04.420Z,20.68
2022-10-11T13:55:35.270Z,20.89
2022-10-11T13:58:05.092Z,20.62
2022-10-11T14:00:35.324Z,20.46
2022-10-11T14:03:08.064Z,20.31
2022-10-11T14:05:39.947Z,20.28
2022-10-11T14:08:23.550Z,20.02
2022-10-11T14:10:56.686Z,19.83
2022-10-11T14:13:31.061Z,19.59
2022-10-11T14:16:07.507Z,19.41
2022-10-11T14:18:50.900Z,19.29
2022-10-11T14:21:25.630Z,19.25
2022-10-11T14:23:56.436Z,19.14
2022-10-11T14:26:26.282Z,19.07
2022-10-11T14:28:57.940Z,18.85
2022-10-11T14:31:26.009Z,18.73
2022-10-11T14:33:54.780Z,18.68
2022-10-11T14:36:23.106Z,18.68
2022-10-11T14:38:50.999Z,18.65
2022-10-11T14:41:20.056Z,18.62
2022-10-11T14:43:47.900Z,18.68
2022-10-11T14:46:22.825Z,18.58
2022-10-11T14:48:55.629Z,18.56
2022-10-11T14:51:28.921Z,18.47
2022-10-11T14:53:56.727Z,18.39
2022-10-11T14:56:25.940Z,18.44
2022-10-11T14:58:53.785Z,18.38
2022-10-11T15:01:21.625Z,18.20
2022-10-11T15:03:49.466Z,18.16
2022-10-11T15:06:20.296Z,18.13
2022-10-11T15:08:48.120Z,17.94
2022-10-11T15:11:18.300Z,17.83
2022-10-11T15:13:47.485Z,17.84
2022-10-11T15:16:17.290Z,17.84
2022-10-11T15:18:50.660Z,17.89
2022-10-11T15:21:19.702Z,17.86
2022-10-11T15:23:47.650Z,17.74
2022-10-11T15:26:16.394Z,17.79
2022-10-11T15:28:44.334Z,17.71
2022-10-11T15:31:14.042Z,17.62
2022-10-11T15:33:42.505Z,17.60
2022-10-11T15:36:14.201Z,17.48
2022-10-11T15:38:42.702Z,17.35
2022-10-11T15:41:12.897Z,17.28
2022-10-11T15:43:40.824Z,17.15
2022-10-11T15:46:09.227Z,17.02
2022-10-11T15:48:38.866Z,16.94
2022-10-11T15:51:07.750Z,16.81
2022-10-11T15:53:35.733Z,16.64
2022-10-11T15:56:05.903Z,16.55
2022-10-11T15:58:36.393Z,16.46
2022-10-11T16:01:07.762Z,16.41
2022-10-11T16:03:36.555Z,16.22
2022-10-11T16:06:06.153Z,16.11
2022-10-11T16:08:34.116Z,16.01
2022-10-11T16:11:02.235Z,15.86
2022-10-11T16:13:30.034Z,15.68
2022-10-11T16:15:58.278Z,15.59
2022-10-11T16:18:26.044Z,15.54
2022-10-11T16:20:53.773Z,15.46
2022-10-11T16:23:23.648Z,15.37
2022-10-11T16:25:58.035Z,15.30
2022-10-11T16:28:26.289Z,15.19
2022-10-11T16:30:54.649Z,15.09
2022-10-11T16:33:22.657Z,15.02
2022-10-11T16:35:50.682Z,14.93
2022-10-11T16:38:18.437Z,14.84
2022-10-11T16:40:47.516Z,14.74
2022-10-11T16:43:15.320Z,14.66
2022-10-11T16:45:42.985Z,14.58
2022-10-11T16:48:10.733Z,14.49
2022-10-11T16:50:39.705Z,14.43
2022-10-11T16:53:07.731Z,14.35
2022-10-11T16:55:35.434Z,14.26
2022-10-11T16:58:04.509Z,14.22
2022-10-11T17:00:32.289Z,14.15
2022-10-11T17:03:00.058Z,14.11
2022-10-11T17:05:27.900Z,14.04
2022-10-11T17:07:55.608Z,13.93
2022-10-11T17:10:39.372Z,13.92
2022-10-11T17:13:08.645Z,13.88
2022-10-11T17:15:37.244Z,13.82
2022-10-11T17:18:05.145Z,13.79
2022-10-11T17:20:32.926Z,13.73
2022-10-11T17:23:00.625Z,13.67
2022-10-11T17:25:28.370Z,13.62
2022-10-11T17:27:56.371Z,13.61
2022-10-11T17:30:26.084Z,13.58
2022-10-11T17:32:53.909Z,13.55
2022-10-11T17:35:21.648Z,13.47
2022-10-11T17:37:49.898Z,13.39
2022-10-11T17:40:17.775Z,13.30
2022-10-11T17:42:47.682Z,13.21
2022-10-11T17:45:15.526Z,13.21
2022-10-11T17:47:44.586Z,13.14
2022-10-11T17:50:12.505Z,13.06
2022-10-11T17:52:40.488Z,12.95
2022-10-11T17:55:08.830Z,12.91
2022-10-11T17:57:36.758Z,12.81
2022-10-11T18:00:06.518Z,12.74
2022-10-11T18:02:34.244Z,12.64
2022-10-11T18:05:04.253Z,12.55
2022-10-11T18:07:31.977Z,12.50
2022-10-11T18:09:59.679Z,12.48
2022-10-11T18:12:27.443Z,12.42
2022-10-11T18:14:55.168Z,12.38
2022-10-11T18:17:22.927Z,12.35
2022-10-11T18:19:50.737Z,12.36
2022-10-11T18:22:19.862Z,12.38
2022-10-11T18:24:47.777Z,12.34
2022-10-11T18:27:15.585Z,12.33
2022-10-11T18:29:43.605Z,12.31
2022-10-11T18:32:12.066Z,12.26
2022-10-11T18:34:39.958Z,12.16
2022-10-11T18:37:07.773Z,12.23
2022-10-11T18:39:36.864Z,12.22
2022-10-11T18:42:05.065Z,12.17
2022-10-11T18:44:32.868Z,12.12
2022-10-11T18:47:00.580Z,12.07
2022-10-11T18:49:28.433Z,12.12
2022-10-11T18:51:56.381Z,12.06
2022-10-11T18:54:24.103Z,12.01
2022-10-11T18:56:53.207Z,11.90
2022-10-11T18:59:21.135Z,11.83
2022-10-11T19:01:52.081Z,11.79
2022-10-11T19:04:20.713Z,11.77
2022-10-11T19:06:49.427Z,11.74
2022-10-11T19:09:21.564Z,11.69
2022-10-11T19:11:50.473Z,11.63
2022-10-11T19:14:22.652Z,11.57
2022-10-11T19:16:52.185Z,11.49
2022-10-11T19:19:21.067Z,11.47
2022-10-11T19:21:49.529Z,11.45
2022-10-11T19:24:17.633Z,11.41
2022-10-11T19:26:45.533Z,11.35
2022-10-11T19:29:15.301Z,11.32
2022-10-11T19:31:46.079Z,11.26
2022-10-11T19:34:14.140Z,11.25
2022-10-11T19:36:42.858Z,11.22
2022-10-11T19:39:12.916Z,11.22
2022-10-11T19:41:41.368Z,11.18
2022-10-11T19:44:09.352Z,11.19
2022-10-11T19:46:50.876Z,11.19
2022-10-11T19:49:22.627Z,11.16
2022-10-11T19:51:50.993Z,11.16
2022-10-11T19:54:19.779Z,11.16
2022-10-11T19:56:47.712Z,11.11
2022-10-11T19:59:15.865Z,11.09
2022-10-11T20:01:47.907Z,11.09
2022-10-11T20:04:50.925Z,11.13
2022-10-11T20:07:08.693Z,11.06
2022-10-11T20:09:36.678Z,11.04
2022-10-11T20:12:04.615Z,11.06
2022-10-11T20:14:32.358Z,11.03
2022-10-11T20:17:00.431Z,10.98
2022-10-11T20:19:31.738Z,10.97
2022-10-11T20:22:00.140Z,10.98
2022-10-11T20:24:32.638Z,11.02
2022-10-11T20:27:01.455Z,11.03
2022-10-11T20:29:29.205Z,11.04
2022-10-11T20:31:58.956Z,11.07
2022-10-11T20:34:27.649Z,11.06
2022-10-11T20:36:56.772Z,11.05
2022-10-11T20:39:24.811Z,11.04
2022-10-11T20:41:52.635Z,11.06
2022-10-11T20:44:20.383Z,11.09
2022-10-11T20:46:48.357Z,11.11
2022-10-11T20:49:16.115Z,11.14
2022-10-11T20:51:43.877Z,11.13
2022-10-11T20:54:13.482Z,11.15
2022-10-11T20:56:41.909Z,11.17
2022-10-11T20:59:10.074Z,11.16
2022-10-11T21:01:40.376Z,11.15
2022-10-11T21:04:09.302Z,11.13
2022-10-11T21:06:37.028Z,11.15
2022-10-11T21:09:04.884Z,11.14
2022-10-11T21:11:35.517Z,11.07
2022-10-11T21:14:04.783Z,11.06
2022-10-11T21:16:33.175Z,11.06
2022-10-11T21:19:02.846Z,11.06
2022-10-11T21:21:31.642Z,10.98
2022-10-11T21:24:00.865Z,10.93
2022-10-11T21:26:29.667Z,10.90
2022-10-11T21:29:00.270Z,10.92
2022-10-11T21:31:33.585Z,10.82
2022-10-11T21:34:01.946Z,10.76
2022-10-11T21:36:29.643Z,10.74
2022-10-11T21:38:57.725Z,10.63
2022-10-11T21:41:29.076Z,10.60
2022-10-11T21:43:58.590Z,10.57
2022-10-11T21:46:47.935Z,10.54
2022-10-11T21:49:16.398Z,10.53
2022-10-11T21:51:44.346Z,10.51
2022-10-11T21:54:12.126Z,10.51
2022-10-11T21:56:39.839Z,10.51
2022-10-11T21:59:12.020Z,10.47
2022-10-11T22:01:40.794Z,10.50
2022-10-11T22:04:09.005Z,10.50
2022-10-11T22:06:37.403Z,10.48
2022-10-11T22:09:05.338Z,10.48
2022-10-11T22:11:33.205Z,10.44
2022-10-11T22:14:00.889Z,10.47
2022-10-11T22:16:29.961Z,10.46
2022-10-11T22:18:57.733Z,10.40
2022-10-11T22:21:25.504Z,10.35
2022-10-11T22:23:54.686Z,10.42
2022-10-11T22:26:24.826Z,10.44
2022-10-11T22:28:53.344Z,10.43
2022-10-11T22:31:22.059Z,10.43
2022-10-11T22:33:54.468Z,10.39
2022-10-11T22:36:24.150Z,10.34
2022-10-11T22:38:52.457Z,10.36
2022-10-11T22:41:20.482Z,10.39
2022-10-11T22:43:48.158Z,10.39
2022-10-11T22:46:16.002Z,10.39
2022-10-11T22:48:43.737Z,10.39
2022-10-11T22:51:13.613Z,10.39
2022-10-11T22:53:41.254Z,10.46
2022-10-11T22:56:10.716Z,10.50
2022-10-11T22:58:38.511Z,10.51
2022-10-11T23:01:10.361Z,10.47
2022-10-11T23:03:38.310Z,10.47
2022-10-11T23:06:06.458Z,10.44
2022-10-11T23:08:36.632Z,10.43
2022-10-11T23:11:05.665Z,10.47
2022-10-11T23:13:33.921Z,10.49
2022-10-11T23:16:06.674Z,10.50
2022-10-11T23:18:34.180Z,10.50
2022-10-11T23:21:02.491Z,10.48
2022-10-11T23:23:30.407Z,10.50
2022-10-11T23:26:04.941Z,10.53
2022-10-11T23:28:32.861Z,10.52
2022-10-11T23:31:00.676Z,10.49
2022-10-11T23:33:29.058Z,10.50
2022-10-11T23:35:56.811Z,10.48
2022-10-11T23:38:24.576Z,10.50
2022-10-11T23:40:52.343Z,10.53
2022-10-11T23:43:21.575Z,10.51
2022-10-11T23:45:49.416Z,10.48
2022-10-11T23:48:17.131Z,10.46
2022-10-11T23:50:44.819Z,10.50
2022-10-11T23:53:14.185Z,10.42
2022-10-11T23:55:42.959Z,10.42
2022-10-11T23:58:10.728Z,10.32
